sensor_id;sensor_type;location;lat;lon;timestamp;P1;durP1;ratioP1;P2;durP2;ratioP2
65764;SDS011;52915;53.718;19.946;2022-11-20T00:00:39;24.00;;;12.60;;
65764;SDS011;52915;53.718;19.946;2022-11-20T00:06:04;43.00;;;18.10;;
65764;SDS011;52915;53.718;19.946;2022-11-20T00:11:15;31.30;;;14.80;;
65764;SDS011;52915;53.718;19.946;2022-11-20T00:16:23;34.40;;;16.10;;
65764;SDS011;52915;53.718;19.946;2022-11-20T00:21:28;53.70;;;18.90;;
65764;SDS011;52915;53.718;19.946;2022-11-20T00:26:35;39.00;;;16.10;;
65764;SDS011;52915;53.718;19.946;2022-11-20T00:31:39;29.90;;;14.10;;
65764;SDS011;52915;53.718;19.946;2022-11-20T00:36:45;20.20;;;10.30;;
65764;SDS011;52915;53.718;19.946;2022-11-20T00:41:49;49.10;;;18.70;;
65764;SDS011;52915;53.718;19.946;2022-11-20T00:46:53;37.00;;;15.50;;
65764;SDS011;52915;53.718;19.946;2022-11-20T00:51:57;51.10;;;22.40;;
65764;SDS011;52915;53.718;19.946;2022-11-20T00:57:01;43.90;;;17.70;;
65764;SDS011;52915;53.718;19.946;2022-11-20T01:02:05;33.40;;;13.00;;
65764;SDS011;52915;53.718;19.946;2022-11-20T01:07:10;30.70;;;12.40;;
65764;SDS011;52915;53.718;19.946;2022-11-20T01:12:14;52.70;;;21.60;;
65764;SDS011;52915;53.718;19.946;2022-11-20T01:17:18;72.80;;;30.40;;
65764;SDS011;52915;53.718;19.946;2022-11-20T01:22:22;31.90;;;14.50;;
65764;SDS011;52915;53.718;19.946;2022-11-20T01:27:26;46.40;;;17.60;;
65764;SDS011;52915;53.718;19.946;2022-11-20T01:32:30;66.10;;;27.20;;
65764;SDS011;52915;53.718;19.946;2022-11-20T01:37:34;63.30;;;25.30;;
65764;SDS011;52915;53.718;19.946;2022-11-20T01:42:47;37.70;;;12.80;;
65764;SDS011;52915;53.718;19.946;2022-11-20T01:48:22;55.10;;;21.30;;
65764;SDS011;52915;53.718;19.946;2022-11-20T01:53:32;29.90;;;12.00;;
65764;SDS011;52915;53.718;19.946;2022-11-20T01:58:45;50.30;;;22.40;;
65764;SDS011;52915;53.718;19.946;2022-11-20T02:03:54;65.90;;;22.90;;
65764;SDS011;52915;53.718;19.946;2022-11-20T02:08:58;57.20;;;25.20;;
65764;SDS011;52915;53.718;19.946;2022-11-20T02:14:02;49.20;;;17.50;;
65764;SDS011;52915;53.718;19.946;2022-11-20T02:19:26;41.50;;;18.10;;
65764;SDS011;52915;53.718;19.946;2022-11-20T02:24:36;53.70;;;20.00;;
65764;SDS011;52915;53.718;19.946;2022-11-20T02:40:23;39.00;;;16.70;;
65764;SDS011;52915;53.718;19.946;2022-11-20T02:45:28;43.70;;;17.10;;
65764;SDS011;52915;53.718;19.946;2022-11-20T02:50:32;62.10;;;21.60;;
65764;SDS011;52915;53.718;19.946;2022-11-20T02:55:37;53.60;;;20.40;;
65764;SDS011;52915;53.718;19.946;2022-11-20T03:00:41;52.50;;;22.50;;
65764;SDS011;52915;53.718;19.946;2022-11-20T03:05:45;90.30;;;34.40;;
65764;SDS011;52915;53.718;19.946;2022-11-20T03:10:49;60.80;;;23.50;;
65764;SDS011;52915;53.718;19.946;2022-11-20T03:15:53;57.00;;;23.10;;
65764;SDS011;52915;53.718;19.946;2022-11-20T03:20:58;30.00;;;13.80;;
65764;SDS011;52915;53.718;19.946;2022-11-20T03:26:20;39.80;;;16.70;;
65764;SDS011;52915;53.718;19.946;2022-11-20T03:31:37;38.60;;;15.10;;
65764;SDS011;52915;53.718;19.946;2022-11-20T03:36:45;61.70;;;25.60;;
65764;SDS011;52915;53.718;19.946;2022-11-20T03:41:49;54.80;;;18.50;;
65764;SDS011;52915;53.718;19.946;2022-11-20T03:46:53;27.90;;;14.10;;
65764;SDS011;52915;53.718;19.946;2022-11-20T03:51:57;38.00;;;15.30;;
65764;SDS011;52915;53.718;19.946;2022-11-20T03:57:01;37.40;;;15.00;;
65764;SDS011;52915;53.718;19.946;2022-11-20T04:02:06;41.20;;;17.70;;
65764;SDS011;52915;53.718;19.946;2022-11-20T04:07:11;41.40;;;15.00;;
65764;SDS011;52915;53.718;19.946;2022-11-20T04:12:16;45.10;;;20.20;;
65764;SDS011;52915;53.718;19.946;2022-11-20T04:17:20;36.80;;;15.30;;
65764;SDS011;52915;53.718;19.946;2022-11-20T04:22:24;65.80;;;24.00;;
65764;SDS011;52915;53.718;19.946;2022-11-20T04:27:28;38.60;;;15.70;;
65764;SDS011;52915;53.718;19.946;2022-11-20T04:32:34;63.70;;;23.60;;
65764;SDS011;52915;53.718;19.946;2022-11-20T04:37:39;37.40;;;16.50;;
65764;SDS011;52915;53.718;19.946;2022-11-20T04:42:43;45.90;;;19.10;;
65764;SDS011;52915;53.718;19.946;2022-11-20T04:47:47;45.10;;;14.60;;
65764;SDS011;52915;53.718;19.946;2022-11-20T04:52:51;76.00;;;26.90;;
65764;SDS011;52915;53.718;19.946;2022-11-20T04:57:56;45.40;;;18.30;;
65764;SDS011;52915;53.718;19.946;2022-11-20T05:03:03;86.40;;;32.10;;
65764;SDS011;52915;53.718;19.946;2022-11-20T05:08:08;81.10;;;32.10;;
65764;SDS011;52915;53.718;19.946;2022-11-20T05:13:13;58.20;;;22.80;;
65764;SDS011;52915;53.718;19.946;2022-11-20T05:18:17;49.30;;;19.80;;
65764;SDS011;52915;53.718;19.946;2022-11-20T05:23:21;43.00;;;17.90;;
65764;SDS011;52915;53.718;19.946;2022-11-20T05:28:28;63.40;;;27.60;;
65764;SDS011;52915;53.718;19.946;2022-11-20T05:33:36;63.80;;;24.00;;
65764;SDS011;52915;53.718;19.946;2022-11-20T05:38:43;66.20;;;23.60;;
65764;SDS011;52915;53.718;19.946;2022-11-20T05:43:53;37.40;;;15.10;;
65764;SDS011;52915;53.718;19.946;2022-11-20T05:48:58;47.90;;;15.70;;
65764;SDS011;52915;53.718;19.946;2022-11-20T05:54:02;57.70;;;21.10;;
65764;SDS011;52915;53.718;19.946;2022-11-20T05:59:06;50.00;;;20.50;;
65764;SDS011;52915;53.718;19.946;2022-11-20T06:04:10;62.40;;;24.30;;
65764;SDS011;52915;53.718;19.946;2022-11-20T06:09:15;59.60;;;22.20;;
65764;SDS011;52915;53.718;19.946;2022-11-20T06:14:19;43.40;;;15.90;;
65764;SDS011;52915;53.718;19.946;2022-11-20T06:19:23;56.90;;;22.30;;
65764;SDS011;52915;53.718;19.946;2022-11-20T06:24:27;51.90;;;19.40;;
65764;SDS011;52915;53.718;19.946;2022-11-20T06:29:32;85.60;;;30.30;;
65764;SDS011;52915;53.718;19.946;2022-11-20T06:34:36;99.10;;;32.60;;
65764;SDS011;52915;53.718;19.946;2022-11-20T06:39:40;77.00;;;27.60;;
65764;SDS011;52915;53.718;19.946;2022-11-20T06:44:45;33.30;;;18.80;;
65764;SDS011;52915;53.718;19.946;2022-11-20T06:49:49;68.50;;;25.80;;
65764;SDS011;52915;53.718;19.946;2022-11-20T06:54:53;67.40;;;24.70;;
65764;SDS011;52915;53.718;19.946;2022-11-20T06:59:58;114.10;;;37.00;;
65764;SDS011;52915;53.718;19.946;2022-11-20T07:05:03;41.30;;;16.10;;
65764;SDS011;52915;53.718;19.946;2022-11-20T07:10:09;67.10;;;23.40;;
65764;SDS011;52915;53.718;19.946;2022-11-20T07:15:13;56.70;;;22.00;;
65764;SDS011;52915;53.718;19.946;2022-11-20T07:20:19;83.00;;;30.40;;
65764;SDS011;52915;53.718;19.946;2022-11-20T07:25:25;80.60;;;27.60;;
65764;SDS011;52915;53.718;19.946;2022-11-20T07:30:30;51.70;;;19.90;;
65764;SDS011;52915;53.718;19.946;2022-11-20T07:42:02;120.20;;;43.60;;
65764;SDS011;52915;53.718;19.946;2022-11-20T07:47:35;71.40;;;23.80;;
65764;SDS011;52915;53.718;19.946;2022-11-20T07:52:39;108.40;;;38.10;;
65764;SDS011;52915;53.718;19.946;2022-11-20T07:57:44;159.30;;;50.50;;
65764;SDS011;52915;53.718;19.946;2022-11-20T08:03:04;92.90;;;35.30;;
65764;SDS011;52915;53.718;19.946;2022-11-20T08:08:10;103.40;;;34.80;;
65764;SDS011;52915;53.718;19.946;2022-11-20T08:13:17;205.50;;;76.40;;
65764;SDS011;52915;53.718;19.946;2022-11-20T08:18:41;172.80;;;73.30;;
65764;SDS011;52915;53.718;19.946;2022-11-20T08:23:46;97.10;;;36.40;;
65764;SDS011;52915;53.718;19.946;2022-11-20T08:28:54;115.10;;;46.70;;
65764;SDS011;52915;53.718;19.946;2022-11-20T08:34:00;93.30;;;31.90;;
65764;SDS011;52915;53.718;19.946;2022-11-20T08:39:13;121.70;;;43.90;;
65764;SDS011;52915;53.718;19.946;2022-11-20T08:44:17;100.00;;;38.30;;
65764;SDS011;52915;53.718;19.946;2022-11-20T08:49:23;61.40;;;26.80;;
65764;SDS011;52915;53.718;19.946;2022-11-20T08:54:30;130.60;;;43.60;;
65764;SDS011;52915;53.718;19.946;2022-11-20T08:59:34;136.20;;;48.20;;
65764;SDS011;52915;53.718;19.946;2022-11-20T09:05:00;233.10;;;75.60;;
65764;SDS011;52915;53.718;19.946;2022-11-20T09:17:34;101.50;;;37.10;;
65764;SDS011;52915;53.718;19.946;2022-11-20T09:22:39;95.00;;;35.20;;
65764;SDS011;52915;53.718;19.946;2022-11-20T09:33:38;123.30;;;41.20;;
65764;SDS011;52915;53.718;19.946;2022-11-20T09:39:07;151.90;;;52.60;;
65764;SDS011;52915;53.718;19.946;2022-11-20T09:55:54;178.30;;;60.70;;
65764;SDS011;52915;53.718;19.946;2022-11-20T10:01:08;250.00;;;78.00;;
65764;SDS011;52915;53.718;19.946;2022-11-20T10:06:52;120.70;;;46.80;;
65764;SDS011;52915;53.718;19.946;2022-11-20T10:31:08;124.50;;;39.20;;
65764;SDS011;52915;53.718;19.946;2022-11-20T10:36:56;435.60;;;124.80;;
65764;SDS011;52915;53.718;19.946;2022-11-20T10:42:17;254.40;;;81.90;;
65764;SDS011;52915;53.718;19.946;2022-11-20T10:47:41;200.10;;;70.80;;
65764;SDS011;52915;53.718;19.946;2022-11-20T10:53:00;268.70;;;75.40;;
65764;SDS011;52915;53.718;19.946;2022-11-20T11:05:40;196.20;;;62.60;;
65764;SDS011;52915;53.718;19.946;2022-11-20T11:11:39;172.60;;;54.30;;
65764;SDS011;52915;53.718;19.946;2022-11-20T11:16:54;157.20;;;56.20;;
65764;SDS011;52915;53.718;19.946;2022-11-20T11:22:00;222.40;;;88.90;;
65764;SDS011;52915;53.718;19.946;2022-11-20T11:27:14;135.40;;;51.10;;
65764;SDS011;52915;53.718;19.946;2022-11-20T11:32:21;227.40;;;76.80;;
65764;SDS011;52915;53.718;19.946;2022-11-20T11:37:35;217.00;;;74.60;;
65764;SDS011;52915;53.718;19.946;2022-11-20T11:43:00;138.90;;;47.30;;
65764;SDS011;52915;53.718;19.946;2022-11-20T11:48:35;123.80;;;38.80;;
65764;SDS011;52915;53.718;19.946;2022-11-20T11:53:41;196.40;;;58.00;;
65764;SDS011;52915;53.718;19.946;2022-11-20T12:39:35;130.10;;;49.70;;
65764;SDS011;52915;53.718;19.946;2022-11-20T12:45:49;199.00;;;66.80;;
65764;SDS011;52915;53.718;19.946;2022-11-20T13:09:32;213.80;;;66.00;;
65764;SDS011;52915;53.718;19.946;2022-11-20T13:20:45;187.90;;;79.40;;
65764;SDS011;52915;53.718;19.946;2022-11-20T13:25:50;225.10;;;84.30;;
65764;SDS011;52915;53.718;19.946;2022-11-20T13:30:57;696.50;;;176.70;;
65764;SDS011;52915;53.718;19.946;2022-11-20T13:36:24;219.90;;;65.70;;
65764;SDS011;52915;53.718;19.946;2022-11-20T14:01:14;513.30;;;137.90;;
65764;SDS011;52915;53.718;19.946;2022-11-20T14:13:25;283.00;;;77.30;;
65764;SDS011;52915;53.718;19.946;2022-11-20T14:18:30;375.50;;;90.00;;
65764;SDS011;52915;53.718;19.946;2022-11-20T14:44:09;356.20;;;114.20;;
65764;SDS011;52915;53.718;19.946;2022-11-20T14:59:34;185.90;;;57.00;;
65764;SDS011;52915;53.718;19.946;2022-11-20T15:12:16;278.80;;;94.50;;
65764;SDS011;52915;53.718;19.946;2022-11-20T15:17:43;175.70;;;64.40;;
65764;SDS011;52915;53.718;19.946;2022-11-20T15:22:49;228.90;;;71.20;;
65764;SDS011;52915;53.718;19.946;2022-11-20T15:28:02;189.30;;;51.20;;
65764;SDS011;52915;53.718;19.946;2022-11-20T15:33:10;450.60;;;118.20;;
65764;SDS011;52915;53.718;19.946;2022-11-20T15:38:39;254.10;;;77.30;;
65764;SDS011;52915;53.718;19.946;2022-11-20T15:43:46;130.30;;;46.70;;
65764;SDS011;52915;53.718;19.946;2022-11-20T15:48:53;121.40;;;40.60;;
65764;SDS011;52915;53.718;19.946;2022-11-20T15:54:25;94.10;;;35.10;;
65764;SDS011;52915;53.718;19.946;2022-11-20T15:59:30;104.80;;;37.70;;
65764;SDS011;52915;53.718;19.946;2022-11-20T16:18:47;228.70;;;71.80;;
65764;SDS011;52915;53.718;19.946;2022-11-20T16:23:56;181.50;;;66.20;;
65764;SDS011;52915;53.718;19.946;2022-11-20T16:29:26;411.60;;;137.10;;
65764;SDS011;52915;53.718;19.946;2022-11-20T16:47:45;82.20;;;26.80;;
65764;SDS011;52915;53.718;19.946;2022-11-20T17:08:48;260.30;;;73.60;;
65764;SDS011;52915;53.718;19.946;2022-11-20T17:14:22;360.30;;;95.20;;
65764;SDS011;52915;53.718;19.946;2022-11-20T17:19:26;345.60;;;106.90;;
65764;SDS011;52915;53.718;19.946;2022-11-20T17:24:30;168.20;;;58.60;;
65764;SDS011;52915;53.718;19.946;2022-11-20T17:29:34;199.90;;;58.60;;
65764;SDS011;52915;53.718;19.946;2022-11-20T17:34:44;137.30;;;41.50;;
65764;SDS011;52915;53.718;19.946;2022-11-20T17:53:23;178.70;;;67.60;;
65764;SDS011;52915;53.718;19.946;2022-11-20T18:10:49;171.60;;;57.90;;
65764;SDS011;52915;53.718;19.946;2022-11-20T18:26:31;248.10;;;83.20;;
65764;SDS011;52915;53.718;19.946;2022-11-20T18:42:27;171.50;;;59.00;;
65764;SDS011;52915;53.718;19.946;2022-11-20T19:07:47;155.40;;;53.40;;
65764;SDS011;52915;53.718;19.946;2022-11-20T19:12:52;184.90;;;61.90;;
65764;SDS011;52915;53.718;19.946;2022-11-20T19:41:57;91.00;;;34.40;;
65764;SDS011;52915;53.718;19.946;2022-11-20T19:46:59;63.30;;;26.40;;
65764;SDS011;52915;53.718;19.946;2022-11-20T19:58:00;165.30;;;58.80;;
65764;SDS011;52915;53.718;19.946;2022-11-20T20:34:31;174.60;;;64.10;;
65764;SDS011;52915;53.718;19.946;2022-11-20T20:39:36;232.50;;;57.30;;
65764;SDS011;52915;53.718;19.946;2022-11-20T20:44:40;172.50;;;58.60;;
65764;SDS011;52915;53.718;19.946;2022-11-20T20:50:05;113.50;;;36.50;;
65764;SDS011;52915;53.718;19.946;2022-11-20T20:55:11;166.20;;;47.90;;
65764;SDS011;52915;53.718;19.946;2022-11-20T21:00:15;104.50;;;36.90;;
65764;SDS011;52915;53.718;19.946;2022-11-20T21:05:19;86.50;;;35.80;;
65764;SDS011;52915;53.718;19.946;2022-11-20T21:10:23;129.50;;;43.10;;
65764;SDS011;52915;53.718;19.946;2022-11-20T21:15:27;132.60;;;44.30;;
65764;SDS011;52915;53.718;19.946;2022-11-20T21:20:31;155.80;;;49.50;;
65764;SDS011;52915;53.718;19.946;2022-11-20T21:25:54;150.80;;;41.00;;
65764;SDS011;52915;53.718;19.946;2022-11-20T21:36:18;64.10;;;26.50;;
65764;SDS011;52915;53.718;19.946;2022-11-20T21:41:28;88.70;;;31.30;;
65764;SDS011;52915;53.718;19.946;2022-11-20T21:46:41;50.80;;;26.80;;
65764;SDS011;52915;53.718;19.946;2022-11-20T21:52:13;104.30;;;35.40;;
65764;SDS011;52915;53.718;19.946;2022-11-20T22:04:06;68.90;;;29.30;;
65764;SDS011;52915;53.718;19.946;2022-11-20T22:15:20;40.60;;;19.50;;
65764;SDS011;52915;53.718;19.946;2022-11-20T22:27:48;107.30;;;40.40;;
65764;SDS011;52915;53.718;19.946;2022-11-20T22:41:24;86.60;;;35.50;;
65764;SDS011;52915;53.718;19.946;2022-11-20T22:53:52;69.60;;;25.70;;
65764;SDS011;52915;53.718;19.946;2022-11-20T22:59:09;50.10;;;19.30;;
65764;SDS011;52915;53.718;19.946;2022-11-20T23:04:13;144.50;;;61.00;;
65764;SDS011;52915;53.718;19.946;2022-11-20T23:16:13;75.60;;;31.70;;
65764;SDS011;52915;53.718;19.946;2022-11-20T23:36:35;84.10;;;36.90;;
65764;SDS011;52915;53.718;19.946;2022-11-20T23:41:39;24.80;;;12.70;;
65764;SDS011;52915;53.718;19.946;2022-11-20T23:46:49;65.00;;;22.90;;
